sensor_id;sensor_type;location;lat;lon;timestamp;temperature;humidity
32534;DHT22;18973;48.580;8.912;2023-09-08T00:02:23;18.70;99.90
32534;DHT22;18973;48.580;8.912;2023-09-08T00:04:49;18.60;99.90
32534;DHT22;18973;48.580;8.912;2023-09-08T00:07:15;18.30;99.90
32534;DHT22;18973;48.580;8.912;2023-09-08T00:09:41;18.30;99.90
32534;DHT22;18973;48.580;8.912;2023-09-08T00:12:07;18.40;99.90
32534;DHT22;18973;48.580;8.912;2023-09-08T00:14:32;18.40;99.90
32534;DHT22;18973;48.580;8.912;2023-09-08T00:16:58;18.20;99.90
32534;DHT22;18973;48.580;8.912;2023-09-08T00:19:24;18.30;99.90
32534;DHT22;18973;48.580;8.912;2023-09-08T00:21:50;18.30;99.90
32534;DHT22;18973;48.580;8.912;2023-09-08T00:24:16;18.20;99.90
32534;DHT22;18973;48.580;8.912;2023-09-08T00:26:42;18.20;99.90
32534;DHT22;18973;48.580;8.912;2023-09-08T00:29:08;18.10;99.90
32534;DHT22;18973;48.580;8.912;2023-09-08T00:31:33;17.70;99.90
32534;DHT22;18973;48.580;8.912;2023-09-08T00:33:59;17.80;99.90
32534;DHT22;18973;48.580;8.912;2023-09-08T00:36:25;17.70;99.90
32534;DHT22;18973;48.580;8.912;2023-09-08T00:38:51;17.40;99.90
32534;DHT22;18973;48.580;8.912;2023-09-08T00:41:16;17.30;99.90
32534;DHT22;18973;48.580;8.912;2023-09-08T00:43:42;17.50;99.90
32534;DHT22;18973;48.580;8.912;2023-09-08T00:46:08;17.60;99.90
32534;DHT22;18973;48.580;8.912;2023-09-08T00:48:35;17.50;99.90
32534;DHT22;18973;48.580;8.912;2023-09-08T00:51:01;17.50;99.90
32534;DHT22;18973;48.580;8.912;2023-09-08T00:53:27;17.30;99.90
32534;DHT22;18973;48.580;8.912;2023-09-08T00:55:54;17.20;99.90
32534;DHT22;18973;48.580;8.912;2023-09-08T00:58:20;17.30;99.90
32534;DHT22;18973;48.580;8.912;2023-09-08T01:00:45;17.50;99.90
32534;DHT22;18973;48.580;8.912;2023-09-08T01:03:12;17.30;99.90
32534;DHT22;18973;48.580;8.912;2023-09-08T01:05:38;17.40;99.90
32534;DHT22;18973;48.580;8.912;2023-09-08T01:08:05;17.20;99.90
32534;DHT22;18973;48.580;8.912;2023-09-08T01:10:32;17.40;99.90
32534;DHT22;18973;48.580;8.912;2023-09-08T01:12:57;17.40;99.90
32534;DHT22;18973;48.580;8.912;2023-09-08T01:15:23;17.10;99.90
32534;DHT22;18973;48.580;8.912;2023-09-08T01:17:49;16.80;99.90
32534;DHT22;18973;48.580;8.912;2023-09-08T01:20:27;16.90;99.90
32534;DHT22;18973;48.580;8.912;2023-09-08T01:23:22;17.10;99.90
32534;DHT22;18973;48.580;8.912;2023-09-08T01:26:04;17.20;99.90
32534;DHT22;18973;48.580;8.912;2023-09-08T01:28:33;17.20;99.90
32534;DHT22;18973;48.580;8.912;2023-09-08T01:31:00;17.40;99.90
32534;DHT22;18973;48.580;8.912;2023-09-08T01:33:26;17.40;99.90
32534;DHT22;18973;48.580;8.912;2023-09-08T01:35:52;17.30;99.90
32534;DHT22;18973;48.580;8.912;2023-09-08T01:38:20;17.10;99.90
32534;DHT22;18973;48.580;8.912;2023-09-08T01:40:46;16.80;99.90
32534;DHT22;18973;48.580;8.912;2023-09-08T01:43:12;16.70;99.90
32534;DHT22;18973;48.580;8.912;2023-09-08T01:45:37;16.70;99.90
32534;DHT22;18973;48.580;8.912;2023-09-08T01:48:03;16.70;99.90
32534;DHT22;18973;48.580;8.912;2023-09-08T01:50:29;16.60;99.90
32534;DHT22;18973;48.580;8.912;2023-09-08T01:52:55;16.70;99.90
32534;DHT22;18973;48.580;8.912;2023-09-08T01:55:21;16.70;99.90
32534;DHT22;18973;48.580;8.912;2023-09-08T01:57:47;16.80;99.90
32534;DHT22;18973;48.580;8.912;2023-09-08T02:00:13;16.70;99.90
32534;DHT22;18973;48.580;8.912;2023-09-08T02:02:39;16.50;99.90
32534;DHT22;18973;48.580;8.912;2023-09-08T02:05:05;16.50;99.90
32534;DHT22;18973;48.580;8.912;2023-09-08T02:07:31;16.40;99.90
32534;DHT22;18973;48.580;8.912;2023-09-08T02:09:57;16.40;99.90
32534;DHT22;18973;48.580;8.912;2023-09-08T02:12:22;16.40;99.90
32534;DHT22;18973;48.580;8.912;2023-09-08T02:14:48;16.30;99.90
32534;DHT22;18973;48.580;8.912;2023-09-08T02:17:14;16.50;99.90
32534;DHT22;18973;48.580;8.912;2023-09-08T02:19:40;16.60;99.90
32534;DHT22;18973;48.580;8.912;2023-09-08T02:22:05;16.70;99.90
32534;DHT22;18973;48.580;8.912;2023-09-08T02:24:31;16.70;99.90
32534;DHT22;18973;48.580;8.912;2023-09-08T02:26:57;16.60;99.90
32534;DHT22;18973;48.580;8.912;2023-09-08T02:29:22;16.50;99.90
32534;DHT22;18973;48.580;8.912;2023-09-08T02:31:48;16.50;99.90
32534;DHT22;18973;48.580;8.912;2023-09-08T02:34:14;16.60;99.90
32534;DHT22;18973;48.580;8.912;2023-09-08T02:36:40;16.70;99.90
32534;DHT22;18973;48.580;8.912;2023-09-08T02:39:06;16.60;99.90
32534;DHT22;18973;48.580;8.912;2023-09-08T02:41:32;16.70;99.90
32534;DHT22;18973;48.580;8.912;2023-09-08T02:43:58;16.80;99.90
32534;DHT22;18973;48.580;8.912;2023-09-08T02:46:24;16.70;99.90
32534;DHT22;18973;48.580;8.912;2023-09-08T02:48:50;16.70;99.90
32534;DHT22;18973;48.580;8.912;2023-09-08T02:51:16;16.70;99.90
32534;DHT22;18973;48.580;8.912;2023-09-08T02:53:42;16.60;99.90
32534;DHT22;18973;48.580;8.912;2023-09-08T02:56:08;16.50;99.90
32534;DHT22;18973;48.580;8.912;2023-09-08T02:58:34;16.60;99.90
32534;DHT22;18973;48.580;8.912;2023-09-08T03:01:16;16.50;99.90
32534;DHT22;18973;48.580;8.912;2023-09-08T03:03:46;16.30;99.90
32534;DHT22;18973;48.580;8.912;2023-09-08T03:06:13;16.30;99.90
32534;DHT22;18973;48.580;8.912;2023-09-08T03:08:38;16.30;99.90
32534;DHT22;18973;48.580;8.912;2023-09-08T03:11:05;16.40;99.90
32534;DHT22;18973;48.580;8.912;2023-09-08T03:13:32;16.50;99.90
32534;DHT22;18973;48.580;8.912;2023-09-08T03:16:05;16.50;99.90
32534;DHT22;18973;48.580;8.912;2023-09-08T03:18:35;16.30;99.90
32534;DHT22;18973;48.580;8.912;2023-09-08T03:21:02;16.30;99.90
32534;DHT22;18973;48.580;8.912;2023-09-08T03:23:38;16.40;99.90
32534;DHT22;18973;48.580;8.912;2023-09-08T03:26:05;16.40;99.90
32534;DHT22;18973;48.580;8.912;2023-09-08T03:28:32;16.20;99.90
32534;DHT22;18973;48.580;8.912;2023-09-08T03:30:58;16.20;99.90
32534;DHT22;18973;48.580;8.912;2023-09-08T03:33:23;16.10;99.90
32534;DHT22;18973;48.580;8.912;2023-09-08T03:35:49;16.00;99.90
32534;DHT22;18973;48.580;8.912;2023-09-08T03:38:15;16.10;99.90
32534;DHT22;18973;48.580;8.912;2023-09-08T03:40:41;16.10;99.90
32534;DHT22;18973;48.580;8.912;2023-09-08T03:43:08;15.80;99.90
32534;DHT22;18973;48.580;8.912;2023-09-08T03:45:33;15.60;99.90
32534;DHT22;18973;48.580;8.912;2023-09-08T03:47:59;15.60;99.90
32534;DHT22;18973;48.580;8.912;2023-09-08T03:50:25;15.60;99.90
32534;DHT22;18973;48.580;8.912;2023-09-08T03:52:50;15.60;99.90
32534;DHT22;18973;48.580;8.912;2023-09-08T03:55:19;15.50;99.90
32534;DHT22;18973;48.580;8.912;2023-09-08T03:57:45;15.40;99.90
32534;DHT22;18973;48.580;8.912;2023-09-08T04:00:11;15.30;99.90
32534;DHT22;18973;48.580;8.912;2023-09-08T04:02:37;15.30;99.90
32534;DHT22;18973;48.580;8.912;2023-09-08T04:05:03;15.30;99.90
32534;DHT22;18973;48.580;8.912;2023-09-08T04:07:29;15.30;99.90
32534;DHT22;18973;48.580;8.912;2023-09-08T04:09:54;15.40;99.90
32534;DHT22;18973;48.580;8.912;2023-09-08T04:12:20;15.30;99.90
32534;DHT22;18973;48.580;8.912;2023-09-08T04:14:46;15.20;99.90
32534;DHT22;18973;48.580;8.912;2023-09-08T04:17:11;15.20;99.90
32534;DHT22;18973;48.580;8.912;2023-09-08T04:19:37;15.10;99.90
32534;DHT22;18973;48.580;8.912;2023-09-08T04:22:03;15.20;99.90
32534;DHT22;18973;48.580;8.912;2023-09-08T04:24:28;15.30;99.90
32534;DHT22;18973;48.580;8.912;2023-09-08T04:26:54;15.30;99.90
32534;DHT22;18973;48.580;8.912;2023-09-08T04:29:20;15.20;99.90
32534;DHT22;18973;48.580;8.912;2023-09-08T04:31:45;15.20;99.90
32534;DHT22;18973;48.580;8.912;2023-09-08T04:34:11;15.20;99.90
32534;DHT22;18973;48.580;8.912;2023-09-08T04:36:37;15.30;99.90
32534;DHT22;18973;48.580;8.912;2023-09-08T04:39:02;15.50;99.90
32534;DHT22;18973;48.580;8.912;2023-09-08T04:41:28;15.60;99.90
32534;DHT22;18973;48.580;8.912;2023-09-08T04:43:54;15.70;99.90
32534;DHT22;18973;48.580;8.912;2023-09-08T04:46:20;15.70;99.90
32534;DHT22;18973;48.580;8.912;2023-09-08T04:48:46;15.80;99.90
32534;DHT22;18973;48.580;8.912;2023-09-08T04:51:12;15.80;99.90
32534;DHT22;18973;48.580;8.912;2023-09-08T04:53:37;15.90;99.90
32534;DHT22;18973;48.580;8.912;2023-09-08T04:56:03;16.00;99.90
32534;DHT22;18973;48.580;8.912;2023-09-08T04:58:29;15.80;99.90
32534;DHT22;18973;48.580;8.912;2023-09-08T05:00:54;15.90;99.90
32534;DHT22;18973;48.580;8.912;2023-09-08T05:03:21;15.70;99.90
32534;DHT22;18973;48.580;8.912;2023-09-08T05:05:47;15.70;99.90
32534;DHT22;18973;48.580;8.912;2023-09-08T05:08:12;15.60;99.90
32534;DHT22;18973;48.580;8.912;2023-09-08T05:10:38;15.70;99.90
32534;DHT22;18973;48.580;8.912;2023-09-08T05:13:04;15.40;99.90
32534;DHT22;18973;48.580;8.912;2023-09-08T05:15:29;15.30;99.90
32534;DHT22;18973;48.580;8.912;2023-09-08T05:17:56;15.30;99.90
32534;DHT22;18973;48.580;8.912;2023-09-08T05:20:22;15.30;99.90
32534;DHT22;18973;48.580;8.912;2023-09-08T05:22:50;15.40;99.90
32534;DHT22;18973;48.580;8.912;2023-09-08T05:25:16;15.50;99.90
32534;DHT22;18973;48.580;8.912;2023-09-08T05:27:41;15.50;99.90
32534;DHT22;18973;48.580;8.912;2023-09-08T05:30:07;15.60;99.90
32534;DHT22;18973;48.580;8.912;2023-09-08T05:32:33;15.60;99.90
32534;DHT22;18973;48.580;8.912;2023-09-08T05:34:59;15.70;99.90
32534;DHT22;18973;48.580;8.912;2023-09-08T05:37:25;15.80;99.90
32534;DHT22;18973;48.580;8.912;2023-09-08T05:39:50;15.90;99.90
32534;DHT22;18973;48.580;8.912;2023-09-08T05:42:16;15.90;99.90
32534;DHT22;18973;48.580;8.912;2023-09-08T05:44:42;16.00;99.90
32534;DHT22;18973;48.580;8.912;2023-09-08T05:47:07;16.00;99.90
32534;DHT22;18973;48.580;8.912;2023-09-08T05:49:33;16.00;99.90
32534;DHT22;18973;48.580;8.912;2023-09-08T05:51:58;16.00;99.90
32534;DHT22;18973;48.580;8.912;2023-09-08T05:54:24;16.10;99.90
32534;DHT22;18973;48.580;8.912;2023-09-08T05:56:50;16.00;99.90
32534;DHT22;18973;48.580;8.912;2023-09-08T05:59:16;16.00;99.90
32534;DHT22;18973;48.580;8.912;2023-09-08T06:01:41;15.90;99.90
32534;DHT22;18973;48.580;8.912;2023-09-08T06:04:07;15.90;99.90
32534;DHT22;18973;48.580;8.912;2023-09-08T06:06:33;16.00;99.90
32534;DHT22;18973;48.580;8.912;2023-09-08T06:08:59;16.00;99.90
32534;DHT22;18973;48.580;8.912;2023-09-08T06:11:24;16.00;99.90
32534;DHT22;18973;48.580;8.912;2023-09-08T06:13:50;16.10;99.90
32534;DHT22;18973;48.580;8.912;2023-09-08T06:16:20;16.10;99.90
32534;DHT22;18973;48.580;8.912;2023-09-08T06:18:48;16.10;99.90
32534;DHT22;18973;48.580;8.912;2023-09-08T06:21:13;16.00;99.90
32534;DHT22;18973;48.580;8.912;2023-09-08T06:23:39;16.10;99.90
32534;DHT22;18973;48.580;8.912;2023-09-08T06:26:05;16.20;99.90
32534;DHT22;18973;48.580;8.912;2023-09-08T06:28:30;16.20;99.90
32534;DHT22;18973;48.580;8.912;2023-09-08T06:30:56;16.30;99.90
32534;DHT22;18973;48.580;8.912;2023-09-08T06:33:22;16.40;99.90
32534;DHT22;18973;48.580;8.912;2023-09-08T06:35:48;16.40;99.90
32534;DHT22;18973;48.580;8.912;2023-09-08T06:38:13;16.50;99.90
32534;DHT22;18973;48.580;8.912;2023-09-08T06:40:39;16.60;99.90
32534;DHT22;18973;48.580;8.912;2023-09-08T06:43:05;16.80;99.90
32534;DHT22;18973;48.580;8.912;2023-09-08T06:45:31;16.90;99.90
32534;DHT22;18973;48.580;8.912;2023-09-08T06:47:57;17.00;99.90
32534;DHT22;18973;48.580;8.912;2023-09-08T06:50:23;17.10;99.90
32534;DHT22;18973;48.580;8.912;2023-09-08T06:52:52;17.30;99.90
32534;DHT22;18973;48.580;8.912;2023-09-08T06:55:18;17.40;99.90
32534;DHT22;18973;48.580;8.912;2023-09-08T06:57:45;17.50;99.90
32534;DHT22;18973;48.580;8.912;2023-09-08T07:00:12;17.60;99.90
32534;DHT22;18973;48.580;8.912;2023-09-08T07:02:38;17.80;99.90
32534;DHT22;18973;48.580;8.912;2023-09-08T07:05:04;17.90;99.90
32534;DHT22;18973;48.580;8.912;2023-09-08T07:07:34;18.10;99.90
32534;DHT22;18973;48.580;8.912;2023-09-08T07:10:02;18.30;99.90
32534;DHT22;18973;48.580;8.912;2023-09-08T07:12:28;18.50;99.90
32534;DHT22;18973;48.580;8.912;2023-09-08T07:14:54;18.70;99.90
32534;DHT22;18973;48.580;8.912;2023-09-08T07:17:20;18.80;99.90
32534;DHT22;18973;48.580;8.912;2023-09-08T07:19:45;19.00;99.90
32534;DHT22;18973;48.580;8.912;2023-09-08T07:22:11;19.10;99.90
32534;DHT22;18973;48.580;8.912;2023-09-08T07:24:37;19.30;99.90
32534;DHT22;18973;48.580;8.912;2023-09-08T07:27:02;19.50;99.90
32534;DHT22;18973;48.580;8.912;2023-09-08T07:29:28;19.70;99.90
32534;DHT22;18973;48.580;8.912;2023-09-08T07:31:55;20.00;99.90
32534;DHT22;18973;48.580;8.912;2023-09-08T07:34:20;20.10;99.90
32534;DHT22;18973;48.580;8.912;2023-09-08T07:36:46;20.30;99.90
32534;DHT22;18973;48.580;8.912;2023-09-08T07:39:12;20.50;99.90
32534;DHT22;18973;48.580;8.912;2023-09-08T07:41:37;20.60;99.90
32534;DHT22;18973;48.580;8.912;2023-09-08T07:44:06;20.90;99.90
32534;DHT22;18973;48.580;8.912;2023-09-08T07:46:32;21.00;99.90
32534;DHT22;18973;48.580;8.912;2023-09-08T07:48:59;21.20;99.90
32534;DHT22;18973;48.580;8.912;2023-09-08T07:51:25;21.60;99.90
32534;DHT22;18973;48.580;8.912;2023-09-08T07:53:54;21.80;99.90
32534;DHT22;18973;48.580;8.912;2023-09-08T07:56:21;21.70;99.90
32534;DHT22;18973;48.580;8.912;2023-09-08T07:58:47;21.80;99.90
32534;DHT22;18973;48.580;8.912;2023-09-08T08:01:14;22.20;99.90
32534;DHT22;18973;48.580;8.912;2023-09-08T08:03:40;22.50;99.90
32534;DHT22;18973;48.580;8.912;2023-09-08T08:06:06;22.90;99.90
32534;DHT22;18973;48.580;8.912;2023-09-08T08:08:32;23.30;99.90
32534;DHT22;18973;48.580;8.912;2023-09-08T08:10:59;23.60;99.90
32534;DHT22;18973;48.580;8.912;2023-09-08T08:13:24;23.70;99.90
32534;DHT22;18973;48.580;8.912;2023-09-08T08:15:50;23.80;99.90
32534;DHT22;18973;48.580;8.912;2023-09-08T08:18:16;24.00;99.90
32534;DHT22;18973;48.580;8.912;2023-09-08T08:20:42;24.10;99.90
32534;DHT22;18973;48.580;8.912;2023-09-08T08:23:08;24.20;99.90
32534;DHT22;18973;48.580;8.912;2023-09-08T08:25:34;24.40;99.90
32534;DHT22;18973;48.580;8.912;2023-09-08T08:28:00;24.50;99.90
32534;DHT22;18973;48.580;8.912;2023-09-08T08:30:27;24.60;99.90
32534;DHT22;18973;48.580;8.912;2023-09-08T08:32:52;24.80;99.90
32534;DHT22;18973;48.580;8.912;2023-09-08T08:35:19;24.90;99.90
32534;DHT22;18973;48.580;8.912;2023-09-08T08:37:45;25.10;99.90
32534;DHT22;18973;48.580;8.912;2023-09-08T08:40:11;25.40;99.90
32534;DHT22;18973;48.580;8.912;2023-09-08T08:42:41;25.60;99.90
32534;DHT22;18973;48.580;8.912;2023-09-08T08:45:08;25.50;99.90
32534;DHT22;18973;48.580;8.912;2023-09-08T08:47:33;25.60;99.90
32534;DHT22;18973;48.580;8.912;2023-09-08T08:50:00;25.80;99.90
32534;DHT22;18973;48.580;8.912;2023-09-08T08:52:27;26.10;99.90
32534;DHT22;18973;48.580;8.912;2023-09-08T08:54:53;26.30;99.90
32534;DHT22;18973;48.580;8.912;2023-09-08T08:57:21;26.50;99.90
32534;DHT22;18973;48.580;8.912;2023-09-08T08:59:48;26.50;99.90
32534;DHT22;18973;48.580;8.912;2023-09-08T09:02:16;26.50;99.90
32534;DHT22;18973;48.580;8.912;2023-09-08T09:04:42;26.70;99.90
32534;DHT22;18973;48.580;8.912;2023-09-08T09:07:08;26.80;99.90
32534;DHT22;18973;48.580;8.912;2023-09-08T09:09:34;26.70;99.90
32534;DHT22;18973;48.580;8.912;2023-09-08T09:12:00;26.60;99.90
32534;DHT22;18973;48.580;8.912;2023-09-08T09:14:31;26.70;99.90
32534;DHT22;18973;48.580;8.912;2023-09-08T09:16:57;26.90;99.90
32534;DHT22;18973;48.580;8.912;2023-09-08T09:19:23;26.60;99.90
32534;DHT22;18973;48.580;8.912;2023-09-08T09:21:58;26.60;99.90
32534;DHT22;18973;48.580;8.912;2023-09-08T09:24:32;26.90;99.90
32534;DHT22;18973;48.580;8.912;2023-09-08T09:27:00;27.10;99.90
32534;DHT22;18973;48.580;8.912;2023-09-08T09:29:27;27.20;99.90
32534;DHT22;18973;48.580;8.912;2023-09-08T09:31:54;27.40;99.90
32534;DHT22;18973;48.580;8.912;2023-09-08T09:34:21;27.50;99.90
32534;DHT22;18973;48.580;8.912;2023-09-08T09:36:51;27.10;99.90
32534;DHT22;18973;48.580;8.912;2023-09-08T09:39:21;27.20;99.90
32534;DHT22;18973;48.580;8.912;2023-09-08T09:41:47;27.40;99.90
32534;DHT22;18973;48.580;8.912;2023-09-08T09:44:14;27.30;99.90
32534;DHT22;18973;48.580;8.912;2023-09-08T09:46:44;27.60;99.90
32534;DHT22;18973;48.580;8.912;2023-09-08T09:49:12;28.10;99.90
32534;DHT22;18973;48.580;8.912;2023-09-08T09:51:49;28.10;99.20
32534;DHT22;18973;48.580;8.912;2023-09-08T09:54:18;28.20;99.10
32534;DHT22;18973;48.580;8.912;2023-09-08T09:56:45;28.30;99.30
32534;DHT22;18973;48.580;8.912;2023-09-08T09:59:13;28.40;99.00
32534;DHT22;18973;48.580;8.912;2023-09-08T10:01:40;28.40;99.90
32534;DHT22;18973;48.580;8.912;2023-09-08T10:04:07;28.70;98.80
32534;DHT22;18973;48.580;8.912;2023-09-08T10:06:34;28.70;98.00
32534;DHT22;18973;48.580;8.912;2023-09-08T10:09:01;28.70;98.30
32534;DHT22;18973;48.580;8.912;2023-09-08T10:11:49;29.00;99.20
32534;DHT22;18973;48.580;8.912;2023-09-08T10:14:17;29.10;97.50
32534;DHT22;18973;48.580;8.912;2023-09-08T10:16:46;29.20;97.30
32534;DHT22;18973;48.580;8.912;2023-09-08T10:19:15;29.20;98.30
32534;DHT22;18973;48.580;8.912;2023-09-08T10:21:44;29.40;98.40
32534;DHT22;18973;48.580;8.912;2023-09-08T10:24:32;29.50;97.50
32534;DHT22;18973;48.580;8.912;2023-09-08T10:27:08;29.70;97.70
32534;DHT22;18973;48.580;8.912;2023-09-08T10:29:35;29.60;97.50
32534;DHT22;18973;48.580;8.912;2023-09-08T10:32:02;29.70;97.30
32534;DHT22;18973;48.580;8.912;2023-09-08T10:34:30;29.50;98.00
32534;DHT22;18973;48.580;8.912;2023-09-08T10:36:56;29.70;98.20
32534;DHT22;18973;48.580;8.912;2023-09-08T10:39:35;29.80;96.80
32534;DHT22;18973;48.580;8.912;2023-09-08T10:42:19;29.90;98.40
32534;DHT22;18973;48.580;8.912;2023-09-08T10:49:45;30.50;98.20
32534;DHT22;18973;48.580;8.912;2023-09-08T10:52:12;30.90;98.30
32534;DHT22;18973;48.580;8.912;2023-09-08T10:54:45;31.00;96.00
32534;DHT22;18973;48.580;8.912;2023-09-08T10:57:14;31.20;96.40
32534;DHT22;18973;48.580;8.912;2023-09-08T10:59:56;31.40;95.80
32534;DHT22;18973;48.580;8.912;2023-09-08T11:02:47;31.50;97.30
32534;DHT22;18973;48.580;8.912;2023-09-08T11:05:14;31.90;96.20
32534;DHT22;18973;48.580;8.912;2023-09-08T11:07:42;32.20;95.40
32534;DHT22;18973;48.580;8.912;2023-09-08T11:10:09;32.30;93.00
32534;DHT22;18973;48.580;8.912;2023-09-08T11:12:35;31.80;93.20
32534;DHT22;18973;48.580;8.912;2023-09-08T11:15:03;31.70;93.30
32534;DHT22;18973;48.580;8.912;2023-09-08T11:17:35;31.20;93.40
32534;DHT22;18973;48.580;8.912;2023-09-08T11:20:02;31.30;95.10
32534;DHT22;18973;48.580;8.912;2023-09-08T11:22:39;31.70;93.70
32534;DHT22;18973;48.580;8.912;2023-09-08T11:25:11;31.70;93.60
32534;DHT22;18973;48.580;8.912;2023-09-08T11:27:37;31.80;93.40
32534;DHT22;18973;48.580;8.912;2023-09-08T11:30:06;31.70;94.70
32534;DHT22;18973;48.580;8.912;2023-09-08T11:32:34;32.00;92.90
32534;DHT22;18973;48.580;8.912;2023-09-08T11:35:07;31.90;93.40
32534;DHT22;18973;48.580;8.912;2023-09-08T11:37:38;32.10;93.60
32534;DHT22;18973;48.580;8.912;2023-09-08T11:40:05;32.40;93.90
32534;DHT22;18973;48.580;8.912;2023-09-08T11:42:42;32.60;92.50
32534;DHT22;18973;48.580;8.912;2023-09-08T11:45:16;32.60;92.40
32534;DHT22;18973;48.580;8.912;2023-09-08T11:47:49;32.60;92.30
32534;DHT22;18973;48.580;8.912;2023-09-08T11:50:15;32.50;92.50
32534;DHT22;18973;48.580;8.912;2023-09-08T11:52:51;32.60;93.70
32534;DHT22;18973;48.580;8.912;2023-09-08T11:55:21;32.80;93.30
32534;DHT22;18973;48.580;8.912;2023-09-08T11:57:53;32.60;91.60
32534;DHT22;18973;48.580;8.912;2023-09-08T12:00:28;32.60;94.00
32534;DHT22;18973;48.580;8.912;2023-09-08T12:03:08;32.60;91.40
32534;DHT22;18973;48.580;8.912;2023-09-08T12:05:37;32.10;93.20
32534;DHT22;18973;48.580;8.912;2023-09-08T12:08:04;32.00;91.90
32534;DHT22;18973;48.580;8.912;2023-09-08T12:10:40;31.80;92.50
32534;DHT22;18973;48.580;8.912;2023-09-08T12:13:06;31.80;92.20
32534;DHT22;18973;48.580;8.912;2023-09-08T12:15:37;31.80;91.90
32534;DHT22;18973;48.580;8.912;2023-09-08T12:18:09;31.60;92.30
32534;DHT22;18973;48.580;8.912;2023-09-08T12:20:36;31.80;94.20
32534;DHT22;18973;48.580;8.912;2023-09-08T12:23:04;32.10;93.00
32534;DHT22;18973;48.580;8.912;2023-09-08T12:25:30;32.20;93.30
32534;DHT22;18973;48.580;8.912;2023-09-08T12:28:01;32.50;92.40
32534;DHT22;18973;48.580;8.912;2023-09-08T12:30:28;32.30;91.70
32534;DHT22;18973;48.580;8.912;2023-09-08T12:32:59;32.00;92.10
32534;DHT22;18973;48.580;8.912;2023-09-08T12:35:26;32.30;92.50
32534;DHT22;18973;48.580;8.912;2023-09-08T12:38:04;32.40;91.90
32534;DHT22;18973;48.580;8.912;2023-09-08T12:40:34;32.40;91.70
32534;DHT22;18973;48.580;8.912;2023-09-08T12:43:00;32.20;92.60
32534;DHT22;18973;48.580;8.912;2023-09-08T12:45:27;32.00;90.40
32534;DHT22;18973;48.580;8.912;2023-09-08T12:47:54;31.60;90.70
32534;DHT22;18973;48.580;8.912;2023-09-08T12:50:24;31.30;91.00
32534;DHT22;18973;48.580;8.912;2023-09-08T12:52:50;31.50;92.00
32534;DHT22;18973;48.580;8.912;2023-09-08T12:55:16;31.80;91.50
32534;DHT22;18973;48.580;8.912;2023-09-08T12:57:42;32.00;90.20
32534;DHT22;18973;48.580;8.912;2023-09-08T13:00:08;32.00;91.20
32534;DHT22;18973;48.580;8.912;2023-09-08T13:02:34;32.10;91.10
32534;DHT22;18973;48.580;8.912;2023-09-08T13:05:00;32.20;91.30
32534;DHT22;18973;48.580;8.912;2023-09-08T13:07:26;32.40;92.30
32534;DHT22;18973;48.580;8.912;2023-09-08T13:09:52;32.30;90.80
32534;DHT22;18973;48.580;8.912;2023-09-08T13:12:18;32.50;91.40
32534;DHT22;18973;48.580;8.912;2023-09-08T13:14:44;32.40;90.30
32534;DHT22;18973;48.580;8.912;2023-09-08T13:17:11;32.40;91.60
32534;DHT22;18973;48.580;8.912;2023-09-08T13:19:37;32.50;90.00
32534;DHT22;18973;48.580;8.912;2023-09-08T13:22:05;32.20;89.10
32534;DHT22;18973;48.580;8.912;2023-09-08T13:24:31;32.10;90.00
32534;DHT22;18973;48.580;8.912;2023-09-08T13:26:57;31.40;89.90
32534;DHT22;18973;48.580;8.912;2023-09-08T13:29:23;31.40;89.70
32534;DHT22;18973;48.580;8.912;2023-09-08T13:31:49;31.40;90.40
32534;DHT22;18973;48.580;8.912;2023-09-08T13:34:14;31.50;89.20
32534;DHT22;18973;48.580;8.912;2023-09-08T13:36:40;31.40;89.10
32534;DHT22;18973;48.580;8.912;2023-09-08T13:39:06;31.20;88.90
32534;DHT22;18973;48.580;8.912;2023-09-08T13:44:13;31.50;87.10
32534;DHT22;18973;48.580;8.912;2023-09-08T13:46:39;31.50;88.40
32534;DHT22;18973;48.580;8.912;2023-09-08T13:49:05;31.30;86.20
32534;DHT22;18973;48.580;8.912;2023-09-08T13:51:31;31.10;86.30
32534;DHT22;18973;48.580;8.912;2023-09-08T13:53:57;31.20;86.50
32534;DHT22;18973;48.580;8.912;2023-09-08T13:56:23;31.30;86.40
32534;DHT22;18973;48.580;8.912;2023-09-08T13:58:49;31.30;86.10
32534;DHT22;18973;48.580;8.912;2023-09-08T14:01:15;31.40;86.40
32534;DHT22;18973;48.580;8.912;2023-09-08T14:03:40;31.30;83.50
32534;DHT22;18973;48.580;8.912;2023-09-08T14:06:06;31.30;85.00
32534;DHT22;18973;48.580;8.912;2023-09-08T14:08:32;31.10;85.40
32534;DHT22;18973;48.580;8.912;2023-09-08T14:10:58;31.10;86.10
32534;DHT22;18973;48.580;8.912;2023-09-08T14:13:23;31.20;86.50
32534;DHT22;18973;48.580;8.912;2023-09-08T14:15:49;31.10;87.80
32534;DHT22;18973;48.580;8.912;2023-09-08T14:18:15;31.20;87.10
32534;DHT22;18973;48.580;8.912;2023-09-08T14:20:42;31.20;88.00
32534;DHT22;18973;48.580;8.912;2023-09-08T14:23:10;31.30;87.80
32534;DHT22;18973;48.580;8.912;2023-09-08T14:25:36;31.00;87.10
32534;DHT22;18973;48.580;8.912;2023-09-08T14:28:02;30.70;88.60
32534;DHT22;18973;48.580;8.912;2023-09-08T14:30:29;30.80;90.00
32534;DHT22;18973;48.580;8.912;2023-09-08T14:32:55;30.90;90.00
32534;DHT22;18973;48.580;8.912;2023-09-08T14:35:21;31.00;90.00
32534;DHT22;18973;48.580;8.912;2023-09-08T14:37:47;31.20;90.00
32534;DHT22;18973;48.580;8.912;2023-09-08T14:40:14;31.10;89.10
32534;DHT22;18973;48.580;8.912;2023-09-08T14:42:40;31.20;89.90
32534;DHT22;18973;48.580;8.912;2023-09-08T14:45:06;31.20;89.60
32534;DHT22;18973;48.580;8.912;2023-09-08T14:47:32;31.20;90.30
32534;DHT22;18973;48.580;8.912;2023-09-08T14:49:58;31.10;89.70
32534;DHT22;18973;48.580;8.912;2023-09-08T14:52:24;31.20;90.60
32534;DHT22;18973;48.580;8.912;2023-09-08T14:54:49;31.10;90.60
32534;DHT22;18973;48.580;8.912;2023-09-08T14:57:15;30.70;90.10
32534;DHT22;18973;48.580;8.912;2023-09-08T14:59:41;30.40;91.10
32534;DHT22;18973;48.580;8.912;2023-09-08T15:02:08;30.30;91.30
32534;DHT22;18973;48.580;8.912;2023-09-08T15:04:34;30.10;91.10
32534;DHT22;18973;48.580;8.912;2023-09-08T15:07:00;30.10;91.70
32534;DHT22;18973;48.580;8.912;2023-09-08T15:09:25;30.30;92.10
32534;DHT22;18973;48.580;8.912;2023-09-08T15:11:51;30.30;91.60
32534;DHT22;18973;48.580;8.912;2023-09-08T15:14:17;30.30;91.90
32534;DHT22;18973;48.580;8.912;2023-09-08T15:16:42;29.90;91.40
32534;DHT22;18973;48.580;8.912;2023-09-08T15:19:08;29.70;91.70
32534;DHT22;18973;48.580;8.912;2023-09-08T15:21:34;29.60;91.80
32534;DHT22;18973;48.580;8.912;2023-09-08T15:24:01;29.60;91.70
32534;DHT22;18973;48.580;8.912;2023-09-08T15:26:30;29.70;91.60
32534;DHT22;18973;48.580;8.912;2023-09-08T15:28:55;29.70;92.00
32534;DHT22;18973;48.580;8.912;2023-09-08T15:31:21;29.60;92.30
32534;DHT22;18973;48.580;8.912;2023-09-08T15:33:47;29.50;92.60
32534;DHT22;18973;48.580;8.912;2023-09-08T15:36:13;29.40;92.50
32534;DHT22;18973;48.580;8.912;2023-09-08T15:38:38;29.50;92.70